Rich Fountain, Missouri
Current Conditions -  °F | °C
As of 4:13 PM on Thursday 23 Oct 2014 (Local Time) from KVIH Reporting Station
Broken Clouds Broken Clouds  
Wind Chill: 61°   Ceiling: 2100
Heat Index: 61°   Visibility: 10mi
Dew Point: 49°   Wind: 10mph
Humidity: 64%   Direction: 190°S
Pressure: 30.09"   Gusts: NA
Location:  38.3614°N, 91.929°W
Report Text: KVIH 232113Z AUTO 19009KT 10SM BKN021 BKN048 BKN100 16/09 A3009 RMK AO2 T01610094
Loading
Personal Weather Stations






























Interactive Weather Map
Tropical Storm Tracking
New forecast layout! Learn more

10-Day Weather Forecast

Advertisements
Track Severe Weather on mobile